sensor_id;sensor_type;location;lat;lon;timestamp;temperature;humidity
22765;DHT22;11549;50.852;3.816;2023-07-09T00:01:26;24.60;99.90
22765;DHT22;11549;50.852;3.816;2023-07-09T00:03:54;24.60;99.90
22765;DHT22;11549;50.852;3.816;2023-07-09T00:06:23;24.50;99.90
22765;DHT22;11549;50.852;3.816;2023-07-09T00:08:52;24.50;99.90
22765;DHT22;11549;50.852;3.816;2023-07-09T00:11:22;24.50;99.90
22765;DHT22;11549;50.852;3.816;2023-07-09T00:13:50;24.40;99.90
22765;DHT22;11549;50.852;3.816;2023-07-09T00:16:24;24.40;99.90
22765;DHT22;11549;50.852;3.816;2023-07-09T00:18:53;24.40;99.90
22765;DHT22;11549;50.852;3.816;2023-07-09T00:21:22;24.30;99.90
22765;DHT22;11549;50.852;3.816;2023-07-09T00:23:51;24.50;99.90
22765;DHT22;11549;50.852;3.816;2023-07-09T00:26:21;24.50;99.90
22765;DHT22;11549;50.852;3.816;2023-07-09T00:28:50;24.30;99.90
22765;DHT22;11549;50.852;3.816;2023-07-09T00:31:18;24.30;99.90
22765;DHT22;11549;50.852;3.816;2023-07-09T00:33:48;24.40;99.90
22765;DHT22;11549;50.852;3.816;2023-07-09T00:36:20;24.50;99.90
22765;DHT22;11549;50.852;3.816;2023-07-09T00:38:50;24.50;99.90
22765;DHT22;11549;50.852;3.816;2023-07-09T00:41:22;24.50;99.90
22765;DHT22;11549;50.852;3.816;2023-07-09T00:43:52;24.50;99.90
22765;DHT22;11549;50.852;3.816;2023-07-09T00:49:30;24.60;99.90
22765;DHT22;11549;50.852;3.816;2023-07-09T00:52:13;24.50;99.90
22765;DHT22;11549;50.852;3.816;2023-07-09T00:54:46;24.60;99.90
22765;DHT22;11549;50.852;3.816;2023-07-09T00:57:19;24.70;99.90
22765;DHT22;11549;50.852;3.816;2023-07-09T00:59:51;24.60;99.90
22765;DHT22;11549;50.852;3.816;2023-07-09T01:02:22;24.70;99.90
22765;DHT22;11549;50.852;3.816;2023-07-09T01:04:52;24.70;99.90
22765;DHT22;11549;50.852;3.816;2023-07-09T01:07:23;24.70;99.90
22765;DHT22;11549;50.852;3.816;2023-07-09T01:09:52;24.60;99.90
22765;DHT22;11549;50.852;3.816;2023-07-09T01:12:22;24.70;99.90
22765;DHT22;11549;50.852;3.816;2023-07-09T01:14:53;24.70;99.90
22765;DHT22;11549;50.852;3.816;2023-07-09T01:17:27;24.60;99.90
22765;DHT22;11549;50.852;3.816;2023-07-09T01:19:56;24.60;99.90
22765;DHT22;11549;50.852;3.816;2023-07-09T01:22:27;24.50;99.90
22765;DHT22;11549;50.852;3.816;2023-07-09T01:24:59;24.50;99.90
22765;DHT22;11549;50.852;3.816;2023-07-09T01:27:31;24.40;99.90
22765;DHT22;11549;50.852;3.816;2023-07-09T01:30:02;24.20;99.90
22765;DHT22;11549;50.852;3.816;2023-07-09T01:32:33;24.10;99.90
22765;DHT22;11549;50.852;3.816;2023-07-09T01:35:04;24.10;99.90
22765;DHT22;11549;50.852;3.816;2023-07-09T01:37:36;24.00;99.90
22765;DHT22;11549;50.852;3.816;2023-07-09T01:40:06;23.80;99.90
22765;DHT22;11549;50.852;3.816;2023-07-09T01:42:55;23.80;99.90
22765;DHT22;11549;50.852;3.816;2023-07-09T01:45:25;23.60;99.90
22765;DHT22;11549;50.852;3.816;2023-07-09T01:47:54;23.60;99.90
22765;DHT22;11549;50.852;3.816;2023-07-09T01:50:24;23.60;99.90
22765;DHT22;11549;50.852;3.816;2023-07-09T01:52:55;23.60;99.90
22765;DHT22;11549;50.852;3.816;2023-07-09T01:55:24;23.50;99.90
22765;DHT22;11549;50.852;3.816;2023-07-09T01:57:53;23.50;99.90
22765;DHT22;11549;50.852;3.816;2023-07-09T02:00:21;23.40;99.90
22765;DHT22;11549;50.852;3.816;2023-07-09T02:02:50;23.40;99.90
22765;DHT22;11549;50.852;3.816;2023-07-09T02:05:20;23.30;99.90
22765;DHT22;11549;50.852;3.816;2023-07-09T02:07:48;23.30;99.90
22765;DHT22;11549;50.852;3.816;2023-07-09T02:10:18;23.30;99.90
22765;DHT22;11549;50.852;3.816;2023-07-09T02:12:47;23.20;99.90
22765;DHT22;11549;50.852;3.816;2023-07-09T02:15:16;23.20;99.90
22765;DHT22;11549;50.852;3.816;2023-07-09T02:17:45;23.10;99.90
22765;DHT22;11549;50.852;3.816;2023-07-09T02:20:13;23.10;99.90
22765;DHT22;11549;50.852;3.816;2023-07-09T02:22:42;23.00;99.90
22765;DHT22;11549;50.852;3.816;2023-07-09T02:25:11;23.00;99.90
22765;DHT22;11549;50.852;3.816;2023-07-09T02:27:40;22.90;99.90
22765;DHT22;11549;50.852;3.816;2023-07-09T02:30:09;22.90;99.90
22765;DHT22;11549;50.852;3.816;2023-07-09T02:32:39;22.80;99.90
22765;DHT22;11549;50.852;3.816;2023-07-09T02:35:08;22.80;99.90
22765;DHT22;11549;50.852;3.816;2023-07-09T02:37:37;22.70;99.90
22765;DHT22;11549;50.852;3.816;2023-07-09T02:40:11;22.70;99.90
22765;DHT22;11549;50.852;3.816;2023-07-09T02:42:42;22.70;99.90
22765;DHT22;11549;50.852;3.816;2023-07-09T02:45:10;22.70;99.90
22765;DHT22;11549;50.852;3.816;2023-07-09T02:47:39;22.60;99.90
22765;DHT22;11549;50.852;3.816;2023-07-09T02:50:08;22.70;99.90
22765;DHT22;11549;50.852;3.816;2023-07-09T02:52:37;22.60;99.90
22765;DHT22;11549;50.852;3.816;2023-07-09T02:55:06;22.50;99.90
22765;DHT22;11549;50.852;3.816;2023-07-09T02:57:34;22.50;99.90
22765;DHT22;11549;50.852;3.816;2023-07-09T03:00:05;22.30;99.90
22765;DHT22;11549;50.852;3.816;2023-07-09T03:02:35;22.30;99.90
22765;DHT22;11549;50.852;3.816;2023-07-09T03:05:04;22.20;99.90
22765;DHT22;11549;50.852;3.816;2023-07-09T03:07:32;22.20;99.90
22765;DHT22;11549;50.852;3.816;2023-07-09T03:10:00;22.20;99.90
22765;DHT22;11549;50.852;3.816;2023-07-09T03:12:29;22.10;99.90
22765;DHT22;11549;50.852;3.816;2023-07-09T03:14:57;22.00;99.90
22765;DHT22;11549;50.852;3.816;2023-07-09T03:17:27;21.90;99.90
22765;DHT22;11549;50.852;3.816;2023-07-09T03:19:55;21.90;99.90
22765;DHT22;11549;50.852;3.816;2023-07-09T03:22:24;21.90;99.90
22765;DHT22;11549;50.852;3.816;2023-07-09T03:24:52;21.90;99.90
22765;DHT22;11549;50.852;3.816;2023-07-09T03:27:20;21.90;99.90
22765;DHT22;11549;50.852;3.816;2023-07-09T03:29:49;21.90;99.90
22765;DHT22;11549;50.852;3.816;2023-07-09T03:32:17;21.90;99.90
22765;DHT22;11549;50.852;3.816;2023-07-09T03:34:47;21.90;99.90
22765;DHT22;11549;50.852;3.816;2023-07-09T03:37:15;21.80;99.90
22765;DHT22;11549;50.852;3.816;2023-07-09T03:39:45;21.80;99.90
22765;DHT22;11549;50.852;3.816;2023-07-09T03:42:14;21.70;99.90
22765;DHT22;11549;50.852;3.816;2023-07-09T03:44:42;21.70;99.90
22765;DHT22;11549;50.852;3.816;2023-07-09T03:47:10;21.70;99.90
22765;DHT22;11549;50.852;3.816;2023-07-09T03:49:39;21.70;99.90
22765;DHT22;11549;50.852;3.816;2023-07-09T03:52:10;21.70;99.90
22765;DHT22;11549;50.852;3.816;2023-07-09T03:54:38;21.70;99.90
22765;DHT22;11549;50.852;3.816;2023-07-09T03:57:06;21.60;99.90
22765;DHT22;11549;50.852;3.816;2023-07-09T03:59:35;21.60;99.90
22765;DHT22;11549;50.852;3.816;2023-07-09T04:02:04;21.60;99.90
22765;DHT22;11549;50.852;3.816;2023-07-09T04:04:34;21.60;99.90
22765;DHT22;11549;50.852;3.816;2023-07-09T04:07:02;21.60;99.90
22765;DHT22;11549;50.852;3.816;2023-07-09T04:09:32;21.40;99.90
22765;DHT22;11549;50.852;3.816;2023-07-09T04:12:01;21.50;99.90
22765;DHT22;11549;50.852;3.816;2023-07-09T04:14:30;21.50;99.90
22765;DHT22;11549;50.852;3.816;2023-07-09T04:16:58;21.40;99.90
22765;DHT22;11549;50.852;3.816;2023-07-09T04:19:27;21.40;99.90
22765;DHT22;11549;50.852;3.816;2023-07-09T04:21:55;21.30;99.90
22765;DHT22;11549;50.852;3.816;2023-07-09T04:24:24;21.30;99.90
22765;DHT22;11549;50.852;3.816;2023-07-09T04:26:55;21.30;99.90
22765;DHT22;11549;50.852;3.816;2023-07-09T04:29:23;21.30;99.90
22765;DHT22;11549;50.852;3.816;2023-07-09T04:31:52;21.40;99.90
22765;DHT22;11549;50.852;3.816;2023-07-09T04:34:20;21.40;99.90
22765;DHT22;11549;50.852;3.816;2023-07-09T04:36:49;21.50;99.90
22765;DHT22;11549;50.852;3.816;2023-07-09T04:39:18;21.60;99.90
22765;DHT22;11549;50.852;3.816;2023-07-09T04:41:47;21.70;99.90
22765;DHT22;11549;50.852;3.816;2023-07-09T04:44:17;21.80;99.90
22765;DHT22;11549;50.852;3.816;2023-07-09T04:46:46;21.90;99.90
22765;DHT22;11549;50.852;3.816;2023-07-09T04:49:16;22.00;99.90
22765;DHT22;11549;50.852;3.816;2023-07-09T04:51:44;22.10;99.90
22765;DHT22;11549;50.852;3.816;2023-07-09T04:54:12;22.20;99.90
22765;DHT22;11549;50.852;3.816;2023-07-09T04:56:42;22.30;99.90
22765;DHT22;11549;50.852;3.816;2023-07-09T04:59:11;22.40;99.90
22765;DHT22;11549;50.852;3.816;2023-07-09T05:01:41;22.50;99.90
22765;DHT22;11549;50.852;3.816;2023-07-09T05:04:09;22.60;99.90
22765;DHT22;11549;50.852;3.816;2023-07-09T05:06:38;22.70;99.90
22765;DHT22;11549;50.852;3.816;2023-07-09T05:09:07;22.90;99.90
22765;DHT22;11549;50.852;3.816;2023-07-09T05:11:36;23.10;99.90
22765;DHT22;11549;50.852;3.816;2023-07-09T05:14:04;23.30;99.90
22765;DHT22;11549;50.852;3.816;2023-07-09T05:16:33;23.50;99.90
22765;DHT22;11549;50.852;3.816;2023-07-09T05:19:03;23.70;99.90
22765;DHT22;11549;50.852;3.816;2023-07-09T05:21:31;23.90;99.90
22765;DHT22;11549;50.852;3.816;2023-07-09T05:24:00;24.10;99.90
22765;DHT22;11549;50.852;3.816;2023-07-09T05:26:28;24.20;99.90
22765;DHT22;11549;50.852;3.816;2023-07-09T05:28:56;24.30;99.90
22765;DHT22;11549;50.852;3.816;2023-07-09T05:31:26;24.40;99.90
22765;DHT22;11549;50.852;3.816;2023-07-09T05:33:54;24.50;99.90
22765;DHT22;11549;50.852;3.816;2023-07-09T05:36:25;24.50;99.90
22765;DHT22;11549;50.852;3.816;2023-07-09T05:38:54;24.60;99.90
22765;DHT22;11549;50.852;3.816;2023-07-09T05:41:23;24.70;99.90
22765;DHT22;11549;50.852;3.816;2023-07-09T05:43:52;24.90;99.90
22765;DHT22;11549;50.852;3.816;2023-07-09T05:46:22;25.00;99.90
22765;DHT22;11549;50.852;3.816;2023-07-09T05:48:51;25.00;99.90
22765;DHT22;11549;50.852;3.816;2023-07-09T05:51:19;25.10;99.90
22765;DHT22;11549;50.852;3.816;2023-07-09T05:53:52;25.00;99.90
22765;DHT22;11549;50.852;3.816;2023-07-09T05:56:21;25.00;99.90
22765;DHT22;11549;50.852;3.816;2023-07-09T05:58:49;25.00;99.90
22765;DHT22;11549;50.852;3.816;2023-07-09T06:01:18;25.00;99.90
22765;DHT22;11549;50.852;3.816;2023-07-09T06:03:48;25.00;99.90
22765;DHT22;11549;50.852;3.816;2023-07-09T06:06:16;25.10;99.90
22765;DHT22;11549;50.852;3.816;2023-07-09T06:08:45;25.20;99.90
22765;DHT22;11549;50.852;3.816;2023-07-09T06:11:15;25.20;99.90
22765;DHT22;11549;50.852;3.816;2023-07-09T06:13:46;25.30;99.90
22765;DHT22;11549;50.852;3.816;2023-07-09T06:16:15;25.40;99.90
22765;DHT22;11549;50.852;3.816;2023-07-09T06:18:44;25.50;99.90
22765;DHT22;11549;50.852;3.816;2023-07-09T06:21:12;25.50;99.90
22765;DHT22;11549;50.852;3.816;2023-07-09T06:23:41;25.60;99.90
22765;DHT22;11549;50.852;3.816;2023-07-09T06:26:09;25.70;99.90
22765;DHT22;11549;50.852;3.816;2023-07-09T06:28:39;25.90;99.90
22765;DHT22;11549;50.852;3.816;2023-07-09T06:31:21;26.00;99.90
22765;DHT22;11549;50.852;3.816;2023-07-09T06:33:52;26.10;99.90
22765;DHT22;11549;50.852;3.816;2023-07-09T06:36:20;26.30;99.90
22765;DHT22;11549;50.852;3.816;2023-07-09T06:38:49;26.50;99.90
22765;DHT22;11549;50.852;3.816;2023-07-09T06:41:17;26.60;99.90
22765;DHT22;11549;50.852;3.816;2023-07-09T06:43:47;26.50;99.90
22765;DHT22;11549;50.852;3.816;2023-07-09T06:46:17;26.30;99.90
22765;DHT22;11549;50.852;3.816;2023-07-09T06:48:46;26.20;99.90
22765;DHT22;11549;50.852;3.816;2023-07-09T06:51:15;26.10;99.90
22765;DHT22;11549;50.852;3.816;2023-07-09T06:53:45;26.10;99.90
22765;DHT22;11549;50.852;3.816;2023-07-09T06:56:17;26.10;99.90
22765;DHT22;11549;50.852;3.816;2023-07-09T06:58:48;26.20;99.90
22765;DHT22;11549;50.852;3.816;2023-07-09T07:01:16;26.20;99.90
22765;DHT22;11549;50.852;3.816;2023-07-09T07:03:47;26.30;99.90
22765;DHT22;11549;50.852;3.816;2023-07-09T07:06:16;26.30;99.90
22765;DHT22;11549;50.852;3.816;2023-07-09T07:08:44;26.50;99.90
22765;DHT22;11549;50.852;3.816;2023-07-09T07:11:12;26.70;99.90
22765;DHT22;11549;50.852;3.816;2023-07-09T07:13:41;26.70;99.90
22765;DHT22;11549;50.852;3.816;2023-07-09T07:16:12;26.80;99.90
22765;DHT22;11549;50.852;3.816;2023-07-09T07:18:41;26.90;99.90
22765;DHT22;11549;50.852;3.816;2023-07-09T07:21:10;27.20;99.90
22765;DHT22;11549;50.852;3.816;2023-07-09T07:23:38;27.40;99.90
22765;DHT22;11549;50.852;3.816;2023-07-09T07:26:07;27.50;99.90
22765;DHT22;11549;50.852;3.816;2023-07-09T07:28:35;27.60;99.90
22765;DHT22;11549;50.852;3.816;2023-07-09T07:31:07;28.00;99.90
22765;DHT22;11549;50.852;3.816;2023-07-09T07:33:38;28.30;99.90
22765;DHT22;11549;50.852;3.816;2023-07-09T07:36:08;28.40;99.90
22765;DHT22;11549;50.852;3.816;2023-07-09T07:38:39;28.50;99.90
22765;DHT22;11549;50.852;3.816;2023-07-09T07:41:08;28.80;99.90
22765;DHT22;11549;50.852;3.816;2023-07-09T07:43:37;28.90;99.90
22765;DHT22;11549;50.852;3.816;2023-07-09T07:46:07;29.20;99.90
22765;DHT22;11549;50.852;3.816;2023-07-09T07:48:37;29.50;99.90
22765;DHT22;11549;50.852;3.816;2023-07-09T07:51:05;29.60;99.90
22765;DHT22;11549;50.852;3.816;2023-07-09T07:53:35;29.80;99.90
22765;DHT22;11549;50.852;3.816;2023-07-09T07:56:04;29.80;99.90
22765;DHT22;11549;50.852;3.816;2023-07-09T07:58:33;30.10;99.90
22765;DHT22;11549;50.852;3.816;2023-07-09T08:01:01;30.40;99.90
22765;DHT22;11549;50.852;3.816;2023-07-09T08:03:30;30.70;99.90
22765;DHT22;11549;50.852;3.816;2023-07-09T08:06:00;30.90;99.90
22765;DHT22;11549;50.852;3.816;2023-07-09T08:08:29;31.00;99.90
22765;DHT22;11549;50.852;3.816;2023-07-09T08:11:01;31.30;99.90
22765;DHT22;11549;50.852;3.816;2023-07-09T08:13:33;31.50;99.90
22765;DHT22;11549;50.852;3.816;2023-07-09T08:16:02;31.70;99.90
22765;DHT22;11549;50.852;3.816;2023-07-09T08:18:31;31.60;99.90
22765;DHT22;11549;50.852;3.816;2023-07-09T08:21:01;31.50;99.90
22765;DHT22;11549;50.852;3.816;2023-07-09T08:23:30;31.90;99.90
22765;DHT22;11549;50.852;3.816;2023-07-09T08:25:59;32.10;99.90
22765;DHT22;11549;50.852;3.816;2023-07-09T08:28:30;32.50;99.90
22765;DHT22;11549;50.852;3.816;2023-07-09T08:30:59;32.50;99.70
22765;DHT22;11549;50.852;3.816;2023-07-09T08:33:28;32.70;99.90
22765;DHT22;11549;50.852;3.816;2023-07-09T08:35:56;32.50;98.60
22765;DHT22;11549;50.852;3.816;2023-07-09T08:38:26;32.50;98.50
22765;DHT22;11549;50.852;3.816;2023-07-09T08:40:58;32.40;98.80
22765;DHT22;11549;50.852;3.816;2023-07-09T08:43:43;32.50;99.20
22765;DHT22;11549;50.852;3.816;2023-07-09T08:46:24;32.70;98.80
22765;DHT22;11549;50.852;3.816;2023-07-09T08:48:57;32.90;97.50
22765;DHT22;11549;50.852;3.816;2023-07-09T08:51:29;33.30;98.20
22765;DHT22;11549;50.852;3.816;2023-07-09T08:54:02;33.40;97.70
22765;DHT22;11549;50.852;3.816;2023-07-09T08:56:33;33.80;98.00
22765;DHT22;11549;50.852;3.816;2023-07-09T08:59:02;34.10;98.10
22765;DHT22;11549;50.852;3.816;2023-07-09T09:01:34;34.30;96.20
22765;DHT22;11549;50.852;3.816;2023-07-09T09:04:15;34.30;95.60
22765;DHT22;11549;50.852;3.816;2023-07-09T09:06:52;34.60;93.80
22765;DHT22;11549;50.852;3.816;2023-07-09T09:09:28;34.80;95.10
22765;DHT22;11549;50.852;3.816;2023-07-09T09:12:07;35.00;94.20
22765;DHT22;11549;50.852;3.816;2023-07-09T09:14:40;35.20;92.70
22765;DHT22;11549;50.852;3.816;2023-07-09T09:17:13;35.10;92.10
22765;DHT22;11549;50.852;3.816;2023-07-09T09:19:46;35.30;91.60
22765;DHT22;11549;50.852;3.816;2023-07-09T09:22:21;35.30;91.30
22765;DHT22;11549;50.852;3.816;2023-07-09T09:24:58;35.50;90.90
22765;DHT22;11549;50.852;3.816;2023-07-09T09:27:27;35.80;90.90
22765;DHT22;11549;50.852;3.816;2023-07-09T09:29:56;35.70;88.40
22765;DHT22;11549;50.852;3.816;2023-07-09T09:32:26;35.50;86.20
22765;DHT22;11549;50.852;3.816;2023-07-09T09:34:55;35.30;87.60
22765;DHT22;11549;50.852;3.816;2023-07-09T09:37:27;35.30;88.50
22765;DHT22;11549;50.852;3.816;2023-07-09T09:39:59;35.30;87.10
22765;DHT22;11549;50.852;3.816;2023-07-09T09:42:30;35.20;90.00
22765;DHT22;11549;50.852;3.816;2023-07-09T09:45:01;34.70;91.20
22765;DHT22;11549;50.852;3.816;2023-07-09T09:47:29;34.50;91.80
22765;DHT22;11549;50.852;3.816;2023-07-09T09:49:58;34.40;91.30
22765;DHT22;11549;50.852;3.816;2023-07-09T09:52:29;34.20;91.00
22765;DHT22;11549;50.852;3.816;2023-07-09T09:55:10;33.70;92.60
22765;DHT22;11549;50.852;3.816;2023-07-09T09:57:39;33.60;93.30
22765;DHT22;11549;50.852;3.816;2023-07-09T10:00:23;33.30;91.80
22765;DHT22;11549;50.852;3.816;2023-07-09T10:02:57;33.00;92.20
22765;DHT22;11549;50.852;3.816;2023-07-09T10:05:51;32.50;94.10
22765;DHT22;11549;50.852;3.816;2023-07-09T10:08:40;32.00;95.00
22765;DHT22;11549;50.852;3.816;2023-07-09T10:12:13;31.80;96.20
22765;DHT22;11549;50.852;3.816;2023-07-09T10:15:29;31.70;95.40
22765;DHT22;11549;50.852;3.816;2023-07-09T10:17:54;31.40;96.30
22765;DHT22;11549;50.852;3.816;2023-07-09T10:22:50;30.90;98.30
22765;DHT22;11549;50.852;3.816;2023-07-09T10:24:36;30.80;98.50
22765;DHT22;11549;50.852;3.816;2023-07-09T10:30:53;30.40;99.60
22765;DHT22;11549;50.852;3.816;2023-07-09T10:31:23;30.10;99.90
22765;DHT22;11549;50.852;3.816;2023-07-09T10:34:00;29.70;99.90
22765;DHT22;11549;50.852;3.816;2023-07-09T10:36:41;29.50;99.90
22765;DHT22;11549;50.852;3.816;2023-07-09T10:39:17;29.10;99.90
22765;DHT22;11549;50.852;3.816;2023-07-09T10:41:50;28.90;99.90
22765;DHT22;11549;50.852;3.816;2023-07-09T10:44:23;28.90;99.90
22765;DHT22;11549;50.852;3.816;2023-07-09T10:46:57;28.90;99.90
22765;DHT22;11549;50.852;3.816;2023-07-09T10:49:34;29.20;99.90
22765;DHT22;11549;50.852;3.816;2023-07-09T10:52:07;29.50;99.90
22765;DHT22;11549;50.852;3.816;2023-07-09T10:54:45;30.00;99.90
22765;DHT22;11549;50.852;3.816;2023-07-09T10:57:19;30.30;99.90
22765;DHT22;11549;50.852;3.816;2023-07-09T10:59:51;30.70;99.90
22765;DHT22;11549;50.852;3.816;2023-07-09T11:02:23;30.70;99.90
22765;DHT22;11549;50.852;3.816;2023-07-09T11:04:54;30.90;99.90
22765;DHT22;11549;50.852;3.816;2023-07-09T11:07:28;31.00;99.90
22765;DHT22;11549;50.852;3.816;2023-07-09T11:09:58;31.00;99.90
22765;DHT22;11549;50.852;3.816;2023-07-09T11:12:31;30.90;99.90
22765;DHT22;11549;50.852;3.816;2023-07-09T11:15:06;30.90;99.90
22765;DHT22;11549;50.852;3.816;2023-07-09T11:17:39;30.80;99.90
22765;DHT22;11549;50.852;3.816;2023-07-09T11:20:18;30.70;99.90
22765;DHT22;11549;50.852;3.816;2023-07-09T11:22:52;30.30;99.90
22765;DHT22;11549;50.852;3.816;2023-07-09T11:25:30;30.10;99.90
22765;DHT22;11549;50.852;3.816;2023-07-09T11:28:04;29.80;99.90
22765;DHT22;11549;50.852;3.816;2023-07-09T11:30:46;29.60;99.90
22765;DHT22;11549;50.852;3.816;2023-07-09T11:33:19;29.50;99.90
22765;DHT22;11549;50.852;3.816;2023-07-09T11:36:05;29.40;99.90
22765;DHT22;11549;50.852;3.816;2023-07-09T11:38:40;29.20;99.90
22765;DHT22;11549;50.852;3.816;2023-07-09T11:41:26;29.00;99.90
22765;DHT22;11549;50.852;3.816;2023-07-09T11:44:04;29.00;99.90
22765;DHT22;11549;50.852;3.816;2023-07-09T11:46:38;28.80;99.90
22765;DHT22;11549;50.852;3.816;2023-07-09T11:49:09;28.70;99.90
22765;DHT22;11549;50.852;3.816;2023-07-09T11:51:41;28.50;99.90
22765;DHT22;11549;50.852;3.816;2023-07-09T11:54:12;28.40;99.90
22765;DHT22;11549;50.852;3.816;2023-07-09T11:56:40;28.30;99.90
22765;DHT22;11549;50.852;3.816;2023-07-09T11:59:12;28.30;99.90
22765;DHT22;11549;50.852;3.816;2023-07-09T12:01:44;28.30;99.90
22765;DHT22;11549;50.852;3.816;2023-07-09T12:04:17;28.20;99.90
22765;DHT22;11549;50.852;3.816;2023-07-09T12:06:47;28.30;99.90
22765;DHT22;11549;50.852;3.816;2023-07-09T12:09:17;28.30;99.90
22765;DHT22;11549;50.852;3.816;2023-07-09T12:11:47;28.20;99.90
22765;DHT22;11549;50.852;3.816;2023-07-09T12:14:17;28.20;99.90
22765;DHT22;11549;50.852;3.816;2023-07-09T12:16:49;28.20;99.90
22765;DHT22;11549;50.852;3.816;2023-07-09T12:19:22;28.20;99.90
22765;DHT22;11549;50.852;3.816;2023-07-09T12:21:52;28.20;99.90
22765;DHT22;11549;50.852;3.816;2023-07-09T12:24:23;28.20;99.90
22765;DHT22;11549;50.852;3.816;2023-07-09T12:26:53;28.00;99.90
22765;DHT22;11549;50.852;3.816;2023-07-09T12:29:24;28.20;99.90
22765;DHT22;11549;50.852;3.816;2023-07-09T12:31:56;28.10;99.90
22765;DHT22;11549;50.852;3.816;2023-07-09T12:34:25;28.10;99.90
22765;DHT22;11549;50.852;3.816;2023-07-09T12:36:53;28.00;99.90
22765;DHT22;11549;50.852;3.816;2023-07-09T12:39:25;28.00;99.90
22765;DHT22;11549;50.852;3.816;2023-07-09T12:41:56;28.00;99.90
22765;DHT22;11549;50.852;3.816;2023-07-09T12:45:03;28.00;99.90
22765;DHT22;11549;50.852;3.816;2023-07-09T12:47:41;27.90;99.90
22765;DHT22;11549;50.852;3.816;2023-07-09T12:54:28;27.40;99.90
22765;DHT22;11549;50.852;3.816;2023-07-09T12:57:13;27.20;99.90
22765;DHT22;11549;50.852;3.816;2023-07-09T12:59:46;27.00;99.90
22765;DHT22;11549;50.852;3.816;2023-07-09T13:02:17;26.70;99.90
22765;DHT22;11549;50.852;3.816;2023-07-09T13:04:49;26.50;99.90
22765;DHT22;11549;50.852;3.816;2023-07-09T13:07:26;26.20;99.90
22765;DHT22;11549;50.852;3.816;2023-07-09T13:09:55;25.90;99.90
22765;DHT22;11549;50.852;3.816;2023-07-09T13:12:31;25.90;99.90
22765;DHT22;11549;50.852;3.816;2023-07-09T13:15:00;25.70;99.90
22765;DHT22;11549;50.852;3.816;2023-07-09T13:17:30;25.60;99.90
22765;DHT22;11549;50.852;3.816;2023-07-09T13:20:00;25.60;99.90
22765;DHT22;11549;50.852;3.816;2023-07-09T13:22:29;25.50;99.90
22765;DHT22;11549;50.852;3.816;2023-07-09T13:24:57;25.60;99.90
22765;DHT22;11549;50.852;3.816;2023-07-09T13:27:25;25.60;99.90
22765;DHT22;11549;50.852;3.816;2023-07-09T13:29:54;25.70;99.90
22765;DHT22;11549;50.852;3.816;2023-07-09T13:32:22;25.60;99.90
22765;DHT22;11549;50.852;3.816;2023-07-09T13:34:51;25.60;99.90
22765;DHT22;11549;50.852;3.816;2023-07-09T13:37:21;25.50;99.90
22765;DHT22;11549;50.852;3.816;2023-07-09T13:39:49;25.40;99.90
22765;DHT22;11549;50.852;3.816;2023-07-09T13:42:18;25.50;99.90
22765;DHT22;11549;50.852;3.816;2023-07-09T13:44:47;25.60;99.90
22765;DHT22;11549;50.852;3.816;2023-07-09T13:47:18;25.60;99.90
22765;DHT22;11549;50.852;3.816;2023-07-09T13:49:47;25.60;99.90
22765;DHT22;11549;50.852;3.816;2023-07-09T13:52:18;25.60;99.90
22765;DHT22;11549;50.852;3.816;2023-07-09T13:54:49;25.60;99.90
22765;DHT22;11549;50.852;3.816;2023-07-09T13:57:19;25.60;99.90
22765;DHT22;11549;50.852;3.816;2023-07-09T13:59:49;25.60;99.90
22765;DHT22;11549;50.852;3.816;2023-07-09T14:02:22;25.50;99.90
22765;DHT22;11549;50.852;3.816;2023-07-09T14:04:52;25.40;99.90
22765;DHT22;11549;50.852;3.816;2023-07-09T14:07:25;25.50;99.90
22765;DHT22;11549;50.852;3.816;2023-07-09T14:09:55;25.60;99.90
22765;DHT22;11549;50.852;3.816;2023-07-09T14:12:24;25.70;99.90
22765;DHT22;11549;50.852;3.816;2023-07-09T14:14:55;25.90;99.90
22765;DHT22;11549;50.852;3.816;2023-07-09T14:17:25;26.30;99.90
22765;DHT22;11549;50.852;3.816;2023-07-09T14:19:53;26.40;99.90
22765;DHT22;11549;50.852;3.816;2023-07-09T14:22:27;26.40;99.90
22765;DHT22;11549;50.852;3.816;2023-07-09T14:25:00;26.50;99.90
22765;DHT22;11549;50.852;3.816;2023-07-09T14:27:29;26.80;99.90
22765;DHT22;11549;50.852;3.816;2023-07-09T14:29:57;26.80;99.90
22765;DHT22;11549;50.852;3.816;2023-07-09T14:32:32;26.60;99.90
22765;DHT22;11549;50.852;3.816;2023-07-09T14:35:02;26.30;99.90
22765;DHT22;11549;50.852;3.816;2023-07-09T14:37:31;26.40;99.90
22765;DHT22;11549;50.852;3.816;2023-07-09T14:40:00;26.50;99.90
22765;DHT22;11549;50.852;3.816;2023-07-09T14:42:32;26.80;99.90
22765;DHT22;11549;50.852;3.816;2023-07-09T14:45:00;27.20;99.90
22765;DHT22;11549;50.852;3.816;2023-07-09T14:47:30;27.60;99.90
22765;DHT22;11549;50.852;3.816;2023-07-09T14:49:58;27.40;99.90
22765;DHT22;11549;50.852;3.816;2023-07-09T14:52:28;27.50;99.90
22765;DHT22;11549;50.852;3.816;2023-07-09T14:55:02;27.60;99.90
22765;DHT22;11549;50.852;3.816;2023-07-09T14:57:31;27.40;99.90
22765;DHT22;11549;50.852;3.816;2023-07-09T15:00:00;27.20;99.90
22765;DHT22;11549;50.852;3.816;2023-07-09T15:02:33;27.00;99.90
22765;DHT22;11549;50.852;3.816;2023-07-09T15:05:02;27.00;99.90
22765;DHT22;11549;50.852;3.816;2023-07-09T15:07:31;27.10;99.90
22765;DHT22;11549;50.852;3.816;2023-07-09T15:10:01;27.00;99.90
22765;DHT22;11549;50.852;3.816;2023-07-09T15:12:34;27.30;99.90
22765;DHT22;11549;50.852;3.816;2023-07-09T15:15:13;27.30;99.90
22765;DHT22;11549;50.852;3.816;2023-07-09T15:17:43;27.50;99.90
22765;DHT22;11549;50.852;3.816;2023-07-09T15:20:15;27.60;99.90
22765;DHT22;11549;50.852;3.816;2023-07-09T15:22:44;27.40;99.90
22765;DHT22;11549;50.852;3.816;2023-07-09T15:25:18;27.30;99.90
22765;DHT22;11549;50.852;3.816;2023-07-09T15:27:47;27.40;99.90
22765;DHT22;11549;50.852;3.816;2023-07-09T15:30:18;27.40;99.90
22765;DHT22;11549;50.852;3.816;2023-07-09T15:32:48;27.50;99.90
22765;DHT22;11549;50.852;3.816;2023-07-09T15:35:18;27.40;99.90
22765;DHT22;11549;50.852;3.816;2023-07-09T15:37:47;27.40;99.90
22765;DHT22;11549;50.852;3.816;2023-07-09T15:40:19;27.40;99.90
22765;DHT22;11549;50.852;3.816;2023-07-09T15:42:50;27.40;99.90
22765;DHT22;11549;50.852;3.816;2023-07-09T15:45:20;27.50;99.90
22765;DHT22;11549;50.852;3.816;2023-07-09T15:47:50;27.50;99.90
22765;DHT22;11549;50.852;3.816;2023-07-09T15:50:23;27.50;99.90
22765;DHT22;11549;50.852;3.816;2023-07-09T15:52:52;27.40;99.90
22765;DHT22;11549;50.852;3.816;2023-07-09T15:55:23;27.40;99.90
22765;DHT22;11549;50.852;3.816;2023-07-09T15:57:54;27.50;99.90
22765;DHT22;11549;50.852;3.816;2023-07-09T16:00:25;27.30;99.90
22765;DHT22;11549;50.852;3.816;2023-07-09T16:02:55;27.10;99.90
22765;DHT22;11549;50.852;3.816;2023-07-09T16:05:41;27.00;99.90